sensor_id;sensor_type;location;lat;lon;timestamp;P1;durP1;ratioP1;P2;durP2;ratioP2
17384;SDS011;8810;48.680;8.894;2022-09-09T00:01:37;2.30;;;1.17;;
17384;SDS011;8810;48.680;8.894;2022-09-09T00:04:14;4.07;;;1.10;;
17384;SDS011;8810;48.680;8.894;2022-09-09T00:06:46;2.47;;;0.90;;
17384;SDS011;8810;48.680;8.894;2022-09-09T00:09:22;2.73;;;1.07;;
17384;SDS011;8810;48.680;8.894;2022-09-09T00:11:53;4.33;;;1.13;;
17384;SDS011;8810;48.680;8.894;2022-09-09T00:14:30;2.93;;;1.00;;
17384;SDS011;8810;48.680;8.894;2022-09-09T00:17:04;2.70;;;0.90;;
17384;SDS011;8810;48.680;8.894;2022-09-09T00:19:37;4.40;;;1.10;;
17384;SDS011;8810;48.680;8.894;2022-09-09T00:22:16;2.50;;;0.80;;
17384;SDS011;8810;48.680;8.894;2022-09-09T00:24:45;1.80;;;1.00;;
17384;SDS011;8810;48.680;8.894;2022-09-09T00:27:16;1.43;;;0.83;;
17384;SDS011;8810;48.680;8.894;2022-09-09T00:29:52;3.03;;;0.83;;
17384;SDS011;8810;48.680;8.894;2022-09-09T00:32:21;3.27;;;0.87;;
17384;SDS011;8810;48.680;8.894;2022-09-09T00:34:51;2.17;;;1.00;;
17384;SDS011;8810;48.680;8.894;2022-09-09T00:37:21;3.20;;;0.80;;
17384;SDS011;8810;48.680;8.894;2022-09-09T00:39:50;3.13;;;0.93;;
17384;SDS011;8810;48.680;8.894;2022-09-09T00:42:23;3.90;;;0.90;;
17384;SDS011;8810;48.680;8.894;2022-09-09T00:44:55;3.37;;;1.00;;
17384;SDS011;8810;48.680;8.894;2022-09-09T00:47:34;2.97;;;1.00;;
17384;SDS011;8810;48.680;8.894;2022-09-09T00:50:15;5.70;;;1.00;;
17384;SDS011;8810;48.680;8.894;2022-09-09T00:53:02;5.27;;;1.03;;
17384;SDS011;8810;48.680;8.894;2022-09-09T00:55:39;3.20;;;1.00;;
17384;SDS011;8810;48.680;8.894;2022-09-09T00:58:12;1.83;;;0.87;;
17384;SDS011;8810;48.680;8.894;2022-09-09T01:00:42;3.03;;;1.10;;
17384;SDS011;8810;48.680;8.894;2022-09-09T01:03:18;2.97;;;0.90;;
17384;SDS011;8810;48.680;8.894;2022-09-09T01:05:51;3.80;;;1.00;;
17384;SDS011;8810;48.680;8.894;2022-09-09T01:08:30;2.30;;;1.03;;
17384;SDS011;8810;48.680;8.894;2022-09-09T01:11:16;3.97;;;1.00;;
17384;SDS011;8810;48.680;8.894;2022-09-09T01:13:47;1.93;;;1.00;;
17384;SDS011;8810;48.680;8.894;2022-09-09T01:16:21;6.17;;;0.90;;
17384;SDS011;8810;48.680;8.894;2022-09-09T01:18:49;2.60;;;0.90;;
17384;SDS011;8810;48.680;8.894;2022-09-09T01:21:20;3.77;;;1.10;;
17384;SDS011;8810;48.680;8.894;2022-09-09T01:24:01;2.73;;;1.10;;
17384;SDS011;8810;48.680;8.894;2022-09-09T01:26:40;2.90;;;1.10;;
17384;SDS011;8810;48.680;8.894;2022-09-09T01:29:09;2.43;;;0.97;;
17384;SDS011;8810;48.680;8.894;2022-09-09T01:31:38;3.97;;;1.03;;
17384;SDS011;8810;48.680;8.894;2022-09-09T01:34:10;1.67;;;0.90;;
17384;SDS011;8810;48.680;8.894;2022-09-09T01:36:39;3.53;;;0.83;;
17384;SDS011;8810;48.680;8.894;2022-09-09T01:39:08;1.73;;;0.97;;
17384;SDS011;8810;48.680;8.894;2022-09-09T01:41:36;3.80;;;0.90;;
17384;SDS011;8810;48.680;8.894;2022-09-09T01:44:04;3.23;;;1.10;;
17384;SDS011;8810;48.680;8.894;2022-09-09T01:46:32;3.10;;;1.10;;
17384;SDS011;8810;48.680;8.894;2022-09-09T01:48:58;3.23;;;1.20;;
17384;SDS011;8810;48.680;8.894;2022-09-09T01:51:27;4.37;;;0.97;;
17384;SDS011;8810;48.680;8.894;2022-09-09T01:53:55;4.93;;;1.30;;
17384;SDS011;8810;48.680;8.894;2022-09-09T01:56:25;2.73;;;1.00;;
17384;SDS011;8810;48.680;8.894;2022-09-09T01:59:09;2.77;;;1.00;;
17384;SDS011;8810;48.680;8.894;2022-09-09T02:01:56;3.97;;;0.90;;
17384;SDS011;8810;48.680;8.894;2022-09-09T02:04:35;2.10;;;0.77;;
17384;SDS011;8810;48.680;8.894;2022-09-09T02:07:06;2.53;;;0.80;;
17384;SDS011;8810;48.680;8.894;2022-09-09T02:09:45;1.93;;;0.97;;
17384;SDS011;8810;48.680;8.894;2022-09-09T02:12:18;5.73;;;1.40;;
17384;SDS011;8810;48.680;8.894;2022-09-09T02:14:50;3.53;;;1.07;;
17384;SDS011;8810;48.680;8.894;2022-09-09T02:17:22;2.67;;;1.00;;
17384;SDS011;8810;48.680;8.894;2022-09-09T02:19:54;4.43;;;1.43;;
17384;SDS011;8810;48.680;8.894;2022-09-09T02:22:25;2.50;;;1.00;;
17384;SDS011;8810;48.680;8.894;2022-09-09T02:24:56;4.10;;;1.13;;
17384;SDS011;8810;48.680;8.894;2022-09-09T02:27:25;1.63;;;0.80;;
17384;SDS011;8810;48.680;8.894;2022-09-09T02:29:53;2.53;;;1.07;;
17384;SDS011;8810;48.680;8.894;2022-09-09T02:32:23;3.70;;;1.13;;
17384;SDS011;8810;48.680;8.894;2022-09-09T02:34:52;2.57;;;0.90;;
17384;SDS011;8810;48.680;8.894;2022-09-09T02:37:23;2.40;;;1.10;;
17384;SDS011;8810;48.680;8.894;2022-09-09T02:39:54;4.27;;;0.90;;
17384;SDS011;8810;48.680;8.894;2022-09-09T02:42:21;4.67;;;1.10;;
17384;SDS011;8810;48.680;8.894;2022-09-09T02:44:48;4.13;;;0.67;;
17384;SDS011;8810;48.680;8.894;2022-09-09T02:47:27;2.23;;;0.90;;
17384;SDS011;8810;48.680;8.894;2022-09-09T02:50:02;1.80;;;0.80;;
17384;SDS011;8810;48.680;8.894;2022-09-09T02:52:37;1.37;;;0.67;;
17384;SDS011;8810;48.680;8.894;2022-09-09T02:55:13;3.90;;;1.23;;
17384;SDS011;8810;48.680;8.894;2022-09-09T02:57:47;4.47;;;1.10;;
17384;SDS011;8810;48.680;8.894;2022-09-09T03:00:15;1.53;;;0.80;;
17384;SDS011;8810;48.680;8.894;2022-09-09T03:02:50;3.37;;;0.93;;
17384;SDS011;8810;48.680;8.894;2022-09-09T03:05:18;2.97;;;1.27;;
17384;SDS011;8810;48.680;8.894;2022-09-09T03:07:45;2.70;;;1.00;;
17384;SDS011;8810;48.680;8.894;2022-09-09T03:10:12;4.40;;;1.10;;
17384;SDS011;8810;48.680;8.894;2022-09-09T03:12:39;4.13;;;0.97;;
17384;SDS011;8810;48.680;8.894;2022-09-09T03:15:06;1.30;;;0.87;;
17384;SDS011;8810;48.680;8.894;2022-09-09T03:17:34;2.33;;;0.93;;
17384;SDS011;8810;48.680;8.894;2022-09-09T03:20:03;1.93;;;1.10;;
17384;SDS011;8810;48.680;8.894;2022-09-09T03:22:31;2.07;;;0.90;;
17384;SDS011;8810;48.680;8.894;2022-09-09T03:24:58;1.13;;;0.70;;
17384;SDS011;8810;48.680;8.894;2022-09-09T03:27:24;5.57;;;1.00;;
17384;SDS011;8810;48.680;8.894;2022-09-09T03:29:51;2.07;;;0.83;;
17384;SDS011;8810;48.680;8.894;2022-09-09T03:32:18;8.93;;;1.00;;
17384;SDS011;8810;48.680;8.894;2022-09-09T03:34:47;1.93;;;0.90;;
17384;SDS011;8810;48.680;8.894;2022-09-09T03:37:16;1.53;;;0.60;;
17384;SDS011;8810;48.680;8.894;2022-09-09T03:39:43;2.23;;;0.90;;
17384;SDS011;8810;48.680;8.894;2022-09-09T03:42:11;2.70;;;0.80;;
17384;SDS011;8810;48.680;8.894;2022-09-09T03:44:39;2.47;;;0.70;;
17384;SDS011;8810;48.680;8.894;2022-09-09T03:47:07;2.30;;;0.80;;
17384;SDS011;8810;48.680;8.894;2022-09-09T03:49:33;1.00;;;0.60;;
17384;SDS011;8810;48.680;8.894;2022-09-09T03:52:00;3.03;;;0.73;;
17384;SDS011;8810;48.680;8.894;2022-09-09T03:54:29;5.37;;;1.00;;
17384;SDS011;8810;48.680;8.894;2022-09-09T03:56:56;1.77;;;0.90;;
17384;SDS011;8810;48.680;8.894;2022-09-09T03:59:23;3.07;;;1.00;;
17384;SDS011;8810;48.680;8.894;2022-09-09T04:01:50;1.17;;;0.53;;
17384;SDS011;8810;48.680;8.894;2022-09-09T04:04:17;4.33;;;1.03;;
17384;SDS011;8810;48.680;8.894;2022-09-09T04:06:44;2.03;;;0.87;;
17384;SDS011;8810;48.680;8.894;2022-09-09T04:09:13;2.17;;;0.90;;
17384;SDS011;8810;48.680;8.894;2022-09-09T04:11:41;3.60;;;0.60;;
17384;SDS011;8810;48.680;8.894;2022-09-09T04:14:08;5.53;;;0.77;;
17384;SDS011;8810;48.680;8.894;2022-09-09T04:16:35;2.67;;;0.80;;
17384;SDS011;8810;48.680;8.894;2022-09-09T04:19:02;1.30;;;0.80;;
17384;SDS011;8810;48.680;8.894;2022-09-09T04:21:29;2.13;;;0.87;;
17384;SDS011;8810;48.680;8.894;2022-09-09T04:23:56;1.87;;;0.70;;
17384;SDS011;8810;48.680;8.894;2022-09-09T04:26:23;5.03;;;0.90;;
17384;SDS011;8810;48.680;8.894;2022-09-09T04:28:51;5.83;;;0.80;;
17384;SDS011;8810;48.680;8.894;2022-09-09T04:31:19;2.03;;;0.80;;
17384;SDS011;8810;48.680;8.894;2022-09-09T04:33:48;1.87;;;0.80;;
17384;SDS011;8810;48.680;8.894;2022-09-09T04:36:15;1.70;;;0.80;;
17384;SDS011;8810;48.680;8.894;2022-09-09T04:38:43;2.53;;;0.90;;
17384;SDS011;8810;48.680;8.894;2022-09-09T04:41:10;2.37;;;1.07;;
17384;SDS011;8810;48.680;8.894;2022-09-09T04:43:37;1.37;;;0.80;;
17384;SDS011;8810;48.680;8.894;2022-09-09T04:46:06;1.20;;;0.70;;
17384;SDS011;8810;48.680;8.894;2022-09-09T04:48:33;1.33;;;0.80;;
17384;SDS011;8810;48.680;8.894;2022-09-09T04:51:00;1.50;;;0.83;;
17384;SDS011;8810;48.680;8.894;2022-09-09T04:53:28;3.20;;;0.87;;
17384;SDS011;8810;48.680;8.894;2022-09-09T04:56:00;2.37;;;0.70;;
17384;SDS011;8810;48.680;8.894;2022-09-09T04:58:28;6.43;;;1.20;;
17384;SDS011;8810;48.680;8.894;2022-09-09T05:00:56;2.77;;;1.00;;
17384;SDS011;8810;48.680;8.894;2022-09-09T05:03:31;2.93;;;1.07;;
17384;SDS011;8810;48.680;8.894;2022-09-09T05:06:01;2.63;;;1.10;;
17384;SDS011;8810;48.680;8.894;2022-09-09T05:08:29;5.13;;;1.13;;
17384;SDS011;8810;48.680;8.894;2022-09-09T05:10:56;5.07;;;0.90;;
17384;SDS011;8810;48.680;8.894;2022-09-09T05:13:24;1.30;;;1.00;;
17384;SDS011;8810;48.680;8.894;2022-09-09T05:15:51;6.33;;;1.00;;
17384;SDS011;8810;48.680;8.894;2022-09-09T05:18:19;2.20;;;0.80;;
17384;SDS011;8810;48.680;8.894;2022-09-09T05:20:48;4.13;;;1.10;;
17384;SDS011;8810;48.680;8.894;2022-09-09T05:23:16;3.80;;;0.80;;
17384;SDS011;8810;48.680;8.894;2022-09-09T05:25:43;4.87;;;0.97;;
17384;SDS011;8810;48.680;8.894;2022-09-09T05:28:11;2.50;;;0.93;;
17384;SDS011;8810;48.680;8.894;2022-09-09T05:30:38;4.27;;;1.20;;
17384;SDS011;8810;48.680;8.894;2022-09-09T05:33:05;2.40;;;1.00;;
17384;SDS011;8810;48.680;8.894;2022-09-09T05:35:34;6.87;;;1.40;;
17384;SDS011;8810;48.680;8.894;2022-09-09T05:38:02;2.47;;;1.20;;
17384;SDS011;8810;48.680;8.894;2022-09-09T05:40:29;1.90;;;1.13;;
17384;SDS011;8810;48.680;8.894;2022-09-09T05:42:59;4.47;;;1.10;;
17384;SDS011;8810;48.680;8.894;2022-09-09T05:45:26;1.97;;;0.80;;
17384;SDS011;8810;48.680;8.894;2022-09-09T05:47:53;2.57;;;1.03;;
17384;SDS011;8810;48.680;8.894;2022-09-09T05:50:20;2.13;;;1.00;;
17384;SDS011;8810;48.680;8.894;2022-09-09T05:52:47;2.17;;;1.00;;
17384;SDS011;8810;48.680;8.894;2022-09-09T05:55:16;5.13;;;1.10;;
17384;SDS011;8810;48.680;8.894;2022-09-09T05:57:47;1.07;;;0.93;;
17384;SDS011;8810;48.680;8.894;2022-09-09T06:00:16;3.20;;;0.90;;
17384;SDS011;8810;48.680;8.894;2022-09-09T06:02:44;1.33;;;0.90;;
17384;SDS011;8810;48.680;8.894;2022-09-09T06:05:17;4.23;;;1.00;;
17384;SDS011;8810;48.680;8.894;2022-09-09T06:07:44;2.37;;;1.00;;
17384;SDS011;8810;48.680;8.894;2022-09-09T06:10:11;5.90;;;1.10;;
17384;SDS011;8810;48.680;8.894;2022-09-09T06:12:40;3.03;;;1.00;;
17384;SDS011;8810;48.680;8.894;2022-09-09T06:15:07;6.07;;;1.17;;
17384;SDS011;8810;48.680;8.894;2022-09-09T06:17:34;5.17;;;1.10;;
17384;SDS011;8810;48.680;8.894;2022-09-09T06:20:02;5.93;;;1.10;;
17384;SDS011;8810;48.680;8.894;2022-09-09T06:22:29;2.57;;;1.17;;
17384;SDS011;8810;48.680;8.894;2022-09-09T06:24:56;2.80;;;0.90;;
17384;SDS011;8810;48.680;8.894;2022-09-09T06:27:23;1.80;;;0.90;;
17384;SDS011;8810;48.680;8.894;2022-09-09T06:29:52;2.13;;;0.87;;
17384;SDS011;8810;48.680;8.894;2022-09-09T06:32:19;4.03;;;1.10;;
17384;SDS011;8810;48.680;8.894;2022-09-09T06:34:46;4.27;;;1.20;;
17384;SDS011;8810;48.680;8.894;2022-09-09T06:37:14;1.70;;;0.97;;
17384;SDS011;8810;48.680;8.894;2022-09-09T06:39:41;4.03;;;0.97;;
17384;SDS011;8810;48.680;8.894;2022-09-09T06:42:07;4.07;;;1.30;;
17384;SDS011;8810;48.680;8.894;2022-09-09T06:44:34;6.13;;;0.97;;
17384;SDS011;8810;48.680;8.894;2022-09-09T06:47:03;3.47;;;1.00;;
17384;SDS011;8810;48.680;8.894;2022-09-09T06:49:30;1.67;;;0.90;;
17384;SDS011;8810;48.680;8.894;2022-09-09T06:51:57;5.10;;;1.10;;
17384;SDS011;8810;48.680;8.894;2022-09-09T06:54:24;2.33;;;1.00;;
17384;SDS011;8810;48.680;8.894;2022-09-09T06:56:50;3.27;;;1.00;;
17384;SDS011;8810;48.680;8.894;2022-09-09T06:59:17;5.20;;;1.07;;
17384;SDS011;8810;48.680;8.894;2022-09-09T07:01:44;3.80;;;1.07;;
17384;SDS011;8810;48.680;8.894;2022-09-09T07:04:13;2.03;;;0.70;;
17384;SDS011;8810;48.680;8.894;2022-09-09T07:06:40;5.13;;;0.85;;
17384;SDS011;8810;48.680;8.894;2022-09-09T07:09:09;2.75;;;1.00;;
17384;SDS011;8810;48.680;8.894;2022-09-09T07:11:38;6.13;;;1.00;;
17384;SDS011;8810;48.680;8.894;2022-09-09T07:14:07;1.17;;;0.68;;
17384;SDS011;8810;48.680;8.894;2022-09-09T07:16:34;2.88;;;0.68;;
17384;SDS011;8810;48.680;8.894;2022-09-09T07:19:02;1.73;;;0.85;;
17384;SDS011;8810;48.680;8.894;2022-09-09T07:21:31;4.38;;;1.48;;
17384;SDS011;8810;48.680;8.894;2022-09-09T07:23:59;3.28;;;0.90;;
17384;SDS011;8810;48.680;8.894;2022-09-09T07:26:27;2.72;;;1.20;;
17384;SDS011;8810;48.680;8.894;2022-09-09T07:28:56;3.35;;;1.00;;
17384;SDS011;8810;48.680;8.894;2022-09-09T07:31:24;4.53;;;1.00;;
17384;SDS011;8810;48.680;8.894;2022-09-09T07:33:52;3.28;;;0.98;;
17384;SDS011;8810;48.680;8.894;2022-09-09T07:36:20;4.97;;;1.05;;
17384;SDS011;8810;48.680;8.894;2022-09-09T07:38:50;2.58;;;0.75;;
17384;SDS011;8810;48.680;8.894;2022-09-09T07:41:19;2.65;;;0.75;;
17384;SDS011;8810;48.680;8.894;2022-09-09T07:43:48;3.75;;;0.80;;
17384;SDS011;8810;48.680;8.894;2022-09-09T07:46:16;5.82;;;1.02;;
17384;SDS011;8810;48.680;8.894;2022-09-09T07:48:45;1.50;;;0.73;;
17384;SDS011;8810;48.680;8.894;2022-09-09T07:51:17;4.18;;;0.90;;
17384;SDS011;8810;48.680;8.894;2022-09-09T07:53:46;2.38;;;0.80;;
17384;SDS011;8810;48.680;8.894;2022-09-09T07:56:16;2.60;;;0.98;;
17384;SDS011;8810;48.680;8.894;2022-09-09T07:58:45;5.78;;;0.77;;
17384;SDS011;8810;48.680;8.894;2022-09-09T08:01:14;3.75;;;0.93;;
17384;SDS011;8810;48.680;8.894;2022-09-09T08:03:43;3.28;;;0.90;;
17384;SDS011;8810;48.680;8.894;2022-09-09T08:06:10;2.00;;;1.02;;
17384;SDS011;8810;48.680;8.894;2022-09-09T08:08:39;1.98;;;0.98;;
17384;SDS011;8810;48.680;8.894;2022-09-09T08:11:08;3.45;;;1.00;;
17384;SDS011;8810;48.680;8.894;2022-09-09T08:13:38;6.85;;;0.88;;
17384;SDS011;8810;48.680;8.894;2022-09-09T08:16:06;3.90;;;0.75;;
17384;SDS011;8810;48.680;8.894;2022-09-09T08:18:34;2.88;;;0.90;;
17384;SDS011;8810;48.680;8.894;2022-09-09T08:21:05;2.80;;;0.75;;
17384;SDS011;8810;48.680;8.894;2022-09-09T08:23:34;5.72;;;1.20;;
17384;SDS011;8810;48.680;8.894;2022-09-09T08:26:09;2.88;;;0.80;;
17384;SDS011;8810;48.680;8.894;2022-09-09T08:28:39;5.50;;;1.05;;
17384;SDS011;8810;48.680;8.894;2022-09-09T08:31:07;1.73;;;0.60;;
17384;SDS011;8810;48.680;8.894;2022-09-09T08:33:35;3.22;;;1.10;;
17384;SDS011;8810;48.680;8.894;2022-09-09T08:36:03;3.15;;;0.98;;
17384;SDS011;8810;48.680;8.894;2022-09-09T08:38:31;2.53;;;1.00;;
17384;SDS011;8810;48.680;8.894;2022-09-09T08:40:59;5.45;;;1.65;;
17384;SDS011;8810;48.680;8.894;2022-09-09T08:43:33;5.00;;;0.95;;
17384;SDS011;8810;48.680;8.894;2022-09-09T08:46:03;3.60;;;0.90;;
17384;SDS011;8810;48.680;8.894;2022-09-09T08:48:39;4.15;;;1.00;;
17384;SDS011;8810;48.680;8.894;2022-09-09T08:51:13;2.17;;;1.02;;
17384;SDS011;8810;48.680;8.894;2022-09-09T08:53:41;2.80;;;1.10;;
17384;SDS011;8810;48.680;8.894;2022-09-09T08:56:12;4.68;;;0.90;;
17384;SDS011;8810;48.680;8.894;2022-09-09T08:58:43;4.45;;;0.80;;
17384;SDS011;8810;48.680;8.894;2022-09-09T09:01:25;3.00;;;0.60;;
17384;SDS011;8810;48.680;8.894;2022-09-09T09:07:18;3.08;;;0.50;;
17384;SDS011;8810;48.680;8.894;2022-09-09T09:09:54;4.03;;;0.50;;
17384;SDS011;8810;48.680;8.894;2022-09-09T09:12:29;3.42;;;0.75;;
17384;SDS011;8810;48.680;8.894;2022-09-09T09:15:01;1.63;;;0.50;;
17384;SDS011;8810;48.680;8.894;2022-09-09T09:17:29;2.42;;;0.80;;
17384;SDS011;8810;48.680;8.894;2022-09-09T09:19:58;2.03;;;0.68;;
17384;SDS011;8810;48.680;8.894;2022-09-09T09:22:26;1.52;;;0.57;;
17384;SDS011;8810;48.680;8.894;2022-09-09T09:25:00;2.33;;;0.70;;
17384;SDS011;8810;48.680;8.894;2022-09-09T09:27:36;1.75;;;0.65;;
17384;SDS011;8810;48.680;8.894;2022-09-09T09:30:13;2.50;;;0.70;;
17384;SDS011;8810;48.680;8.894;2022-09-09T09:32:52;1.80;;;0.65;;
17384;SDS011;8810;48.680;8.894;2022-09-09T09:35:21;2.92;;;0.98;;
17384;SDS011;8810;48.680;8.894;2022-09-09T09:37:49;1.55;;;0.57;;
17384;SDS011;8810;48.680;8.894;2022-09-09T09:40:16;3.70;;;1.02;;
17384;SDS011;8810;48.680;8.894;2022-09-09T09:42:51;3.85;;;0.85;;
17384;SDS011;8810;48.680;8.894;2022-09-09T09:45:27;3.60;;;0.80;;
17384;SDS011;8810;48.680;8.894;2022-09-09T09:48:02;3.22;;;0.80;;
17384;SDS011;8810;48.680;8.894;2022-09-09T09:50:30;3.03;;;0.90;;
17384;SDS011;8810;48.680;8.894;2022-09-09T09:52:59;1.90;;;0.93;;
17384;SDS011;8810;48.680;8.894;2022-09-09T09:55:29;4.10;;;0.95;;
17384;SDS011;8810;48.680;8.894;2022-09-09T09:58:01;2.33;;;0.85;;
17384;SDS011;8810;48.680;8.894;2022-09-09T10:00:30;2.70;;;1.00;;
17384;SDS011;8810;48.680;8.894;2022-09-09T10:02:57;3.92;;;0.93;;
17384;SDS011;8810;48.680;8.894;2022-09-09T10:05:28;1.48;;;0.65;;
17384;SDS011;8810;48.680;8.894;2022-09-09T10:08:05;1.65;;;0.73;;
17384;SDS011;8810;48.680;8.894;2022-09-09T10:10:39;2.53;;;0.70;;
17384;SDS011;8810;48.680;8.894;2022-09-09T10:13:15;3.28;;;0.80;;
17384;SDS011;8810;48.680;8.894;2022-09-09T10:15:50;3.88;;;0.68;;
17384;SDS011;8810;48.680;8.894;2022-09-09T10:18:34;4.70;;;0.77;;
17384;SDS011;8810;48.680;8.894;2022-09-09T10:21:24;5.28;;;0.80;;
17384;SDS011;8810;48.680;8.894;2022-09-09T10:27:19;4.40;;;0.60;;
17384;SDS011;8810;48.680;8.894;2022-09-09T10:29:57;2.75;;;0.77;;
17384;SDS011;8810;48.680;8.894;2022-09-09T10:32:36;3.50;;;0.85;;
17384;SDS011;8810;48.680;8.894;2022-09-09T10:35:09;2.60;;;0.60;;
17384;SDS011;8810;48.680;8.894;2022-09-09T10:37:45;3.72;;;0.73;;
17384;SDS011;8810;48.680;8.894;2022-09-09T10:40:24;1.30;;;0.50;;
17384;SDS011;8810;48.680;8.894;2022-09-09T10:43:02;2.40;;;0.77;;
17384;SDS011;8810;48.680;8.894;2022-09-09T10:45:39;2.92;;;0.60;;
17384;SDS011;8810;48.680;8.894;2022-09-09T10:48:19;0.95;;;0.50;;
17384;SDS011;8810;48.680;8.894;2022-09-09T10:50:58;2.15;;;0.63;;
17384;SDS011;8810;48.680;8.894;2022-09-09T10:53:40;1.20;;;0.50;;
17384;SDS011;8810;48.680;8.894;2022-09-09T10:56:17;2.92;;;0.50;;
17384;SDS011;8810;48.680;8.894;2022-09-09T10:58:47;0.82;;;0.35;;
17384;SDS011;8810;48.680;8.894;2022-09-09T11:01:18;1.10;;;0.60;;
17384;SDS011;8810;48.680;8.894;2022-09-09T11:03:52;2.28;;;0.60;;
17384;SDS011;8810;48.680;8.894;2022-09-09T11:06:22;2.53;;;0.55;;
17384;SDS011;8810;48.680;8.894;2022-09-09T11:08:56;3.22;;;0.63;;
17384;SDS011;8810;48.680;8.894;2022-09-09T11:14:03;1.02;;;0.40;;
17384;SDS011;8810;48.680;8.894;2022-09-09T11:16:39;0.77;;;0.30;;
17384;SDS011;8810;48.680;8.894;2022-09-09T11:19:11;1.52;;;0.28;;
17384;SDS011;8810;48.680;8.894;2022-09-09T11:21:45;0.90;;;0.45;;
17384;SDS011;8810;48.680;8.894;2022-09-09T11:24:16;0.40;;;0.30;;
17384;SDS011;8810;48.680;8.894;2022-09-09T11:26:49;2.95;;;0.30;;
17384;SDS011;8810;48.680;8.894;2022-09-09T11:29:23;0.90;;;0.32;;
17384;SDS011;8810;48.680;8.894;2022-09-09T11:32:09;2.13;;;0.38;;
17384;SDS011;8810;48.680;8.894;2022-09-09T11:34:50;2.10;;;0.30;;
17384;SDS011;8810;48.680;8.894;2022-09-09T11:37:27;2.00;;;0.30;;
17384;SDS011;8810;48.680;8.894;2022-09-09T11:40:20;1.88;;;0.32;;
17384;SDS011;8810;48.680;8.894;2022-09-09T11:43:00;0.40;;;0.20;;
17384;SDS011;8810;48.680;8.894;2022-09-09T11:45:31;0.70;;;0.30;;
17384;SDS011;8810;48.680;8.894;2022-09-09T11:48:00;0.95;;;0.30;;
17384;SDS011;8810;48.680;8.894;2022-09-09T11:50:33;2.45;;;0.40;;
17384;SDS011;8810;48.680;8.894;2022-09-09T11:56:00;2.35;;;0.40;;
17384;SDS011;8810;48.680;8.894;2022-09-09T11:58:31;1.13;;;0.40;;
17384;SDS011;8810;48.680;8.894;2022-09-09T12:01:12;0.47;;;0.25;;
17384;SDS011;8810;48.680;8.894;2022-09-09T12:03:41;0.50;;;0.30;;
17384;SDS011;8810;48.680;8.894;2022-09-09T12:06:13;0.60;;;0.30;;
17384;SDS011;8810;48.680;8.894;2022-09-09T12:08:43;2.45;;;0.35;;
17384;SDS011;8810;48.680;8.894;2022-09-09T12:11:22;0.65;;;0.38;;
17384;SDS011;8810;48.680;8.894;2022-09-09T12:13:52;2.88;;;0.40;;
17384;SDS011;8810;48.680;8.894;2022-09-09T12:16:27;1.13;;;0.40;;
17384;SDS011;8810;48.680;8.894;2022-09-09T12:19:05;1.17;;;0.30;;
17384;SDS011;8810;48.680;8.894;2022-09-09T12:21:41;1.60;;;0.22;;
17384;SDS011;8810;48.680;8.894;2022-09-09T12:24:15;2.85;;;0.40;;
17384;SDS011;8810;48.680;8.894;2022-09-09T12:26:50;2.15;;;0.30;;
17384;SDS011;8810;48.680;8.894;2022-09-09T12:29:23;0.45;;;0.30;;
17384;SDS011;8810;48.680;8.894;2022-09-09T12:31:55;0.73;;;0.40;;
17384;SDS011;8810;48.680;8.894;2022-09-09T12:34:30;1.20;;;0.70;;
17384;SDS011;8810;48.680;8.894;2022-09-09T12:37:03;0.77;;;0.40;;
17384;SDS011;8810;48.680;8.894;2022-09-09T12:39:35;0.63;;;0.50;;
17384;SDS011;8810;48.680;8.894;2022-09-09T12:42:15;0.98;;;0.40;;
17384;SDS011;8810;48.680;8.894;2022-09-09T12:44:50;1.52;;;0.50;;
17384;SDS011;8810;48.680;8.894;2022-09-09T12:47:18;0.68;;;0.40;;
17384;SDS011;8810;48.680;8.894;2022-09-09T12:49:48;2.42;;;0.60;;
17384;SDS011;8810;48.680;8.894;2022-09-09T12:52:17;2.70;;;0.60;;
17384;SDS011;8810;48.680;8.894;2022-09-09T12:54:49;2.72;;;0.60;;
17384;SDS011;8810;48.680;8.894;2022-09-09T12:57:20;1.55;;;0.50;;
17384;SDS011;8810;48.680;8.894;2022-09-09T12:59:50;2.13;;;0.47;;
17384;SDS011;8810;48.680;8.894;2022-09-09T13:02:19;3.20;;;0.70;;
17384;SDS011;8810;48.680;8.894;2022-09-09T13:04:54;0.70;;;0.40;;
17384;SDS011;8810;48.680;8.894;2022-09-09T13:08:04;1.17;;;0.38;;
17384;SDS011;8810;48.680;8.894;2022-09-09T13:10:33;3.15;;;0.40;;
17384;SDS011;8810;48.680;8.894;2022-09-09T13:13:10;1.75;;;0.43;;
17384;SDS011;8810;48.680;8.894;2022-09-09T13:15:40;0.93;;;0.43;;
17384;SDS011;8810;48.680;8.894;2022-09-09T13:18:15;1.92;;;0.52;;
17384;SDS011;8810;48.680;8.894;2022-09-09T13:20:45;2.10;;;0.43;;
17384;SDS011;8810;48.680;8.894;2022-09-09T13:23:13;1.05;;;0.40;;
17384;SDS011;8810;48.680;8.894;2022-09-09T13:25:42;2.25;;;0.40;;
17384;SDS011;8810;48.680;8.894;2022-09-09T13:28:21;1.75;;;0.40;;
17384;SDS011;8810;48.680;8.894;2022-09-09T13:30:56;1.55;;;0.43;;
17384;SDS011;8810;48.680;8.894;2022-09-09T13:33:31;1.33;;;0.40;;
17384;SDS011;8810;48.680;8.894;2022-09-09T13:36:00;1.30;;;0.40;;
17384;SDS011;8810;48.680;8.894;2022-09-09T13:38:30;2.75;;;0.40;;
17384;SDS011;8810;48.680;8.894;2022-09-09T13:41:00;1.67;;;0.40;;
17384;SDS011;8810;48.680;8.894;2022-09-09T13:43:31;2.35;;;0.45;;
17384;SDS011;8810;48.680;8.894;2022-09-09T13:46:02;2.03;;;0.32;;
17384;SDS011;8810;48.680;8.894;2022-09-09T13:48:30;2.38;;;0.45;;
17384;SDS011;8810;48.680;8.894;2022-09-09T13:50:58;3.70;;;0.40;;
17384;SDS011;8810;48.680;8.894;2022-09-09T13:53:26;2.55;;;0.40;;
17384;SDS011;8810;48.680;8.894;2022-09-09T13:55:53;2.20;;;0.38;;
17384;SDS011;8810;48.680;8.894;2022-09-09T13:58:21;1.55;;;0.20;;
17384;SDS011;8810;48.680;8.894;2022-09-09T14:00:51;2.28;;;0.40;;
17384;SDS011;8810;48.680;8.894;2022-09-09T14:03:19;4.25;;;0.40;;
17384;SDS011;8810;48.680;8.894;2022-09-09T14:05:46;1.10;;;0.20;;
17384;SDS011;8810;48.680;8.894;2022-09-09T14:08:15;1.20;;;0.40;;
17384;SDS011;8810;48.680;8.894;2022-09-09T14:10:50;2.17;;;0.40;;
17384;SDS011;8810;48.680;8.894;2022-09-09T14:13:20;0.93;;;0.25;;
17384;SDS011;8810;48.680;8.894;2022-09-09T14:15:48;5.45;;;0.47;;
17384;SDS011;8810;48.680;8.894;2022-09-09T14:18:17;1.10;;;0.20;;
17384;SDS011;8810;48.680;8.894;2022-09-09T14:20:44;0.82;;;0.30;;
17384;SDS011;8810;48.680;8.894;2022-09-09T14:23:11;1.10;;;0.40;;
17384;SDS011;8810;48.680;8.894;2022-09-09T14:25:41;3.22;;;0.38;;
17384;SDS011;8810;48.680;8.894;2022-09-09T14:28:10;0.80;;;0.40;;
17384;SDS011;8810;48.680;8.894;2022-09-09T14:30:38;2.65;;;0.50;;
17384;SDS011;8810;48.680;8.894;2022-09-09T14:33:06;1.15;;;0.20;;
17384;SDS011;8810;48.680;8.894;2022-09-09T14:35:35;1.95;;;0.40;;
17384;SDS011;8810;48.680;8.894;2022-09-09T14:38:02;5.53;;;0.60;;
17384;SDS011;8810;48.680;8.894;2022-09-09T14:40:29;2.10;;;0.50;;
17384;SDS011;8810;48.680;8.894;2022-09-09T14:42:56;1.17;;;0.30;;
17384;SDS011;8810;48.680;8.894;2022-09-09T14:45:24;3.03;;;0.50;;
17384;SDS011;8810;48.680;8.894;2022-09-09T14:47:51;1.73;;;0.38;;
17384;SDS011;8810;48.680;8.894;2022-09-09T14:50:19;1.67;;;0.40;;
17384;SDS011;8810;48.680;8.894;2022-09-09T14:52:48;1.17;;;0.30;;
17384;SDS011;8810;48.680;8.894;2022-09-09T14:55:15;2.88;;;0.55;;
17384;SDS011;8810;48.680;8.894;2022-09-09T14:57:42;1.95;;;0.50;;
17384;SDS011;8810;48.680;8.894;2022-09-09T15:00:10;2.60;;;0.40;;
17384;SDS011;8810;48.680;8.894;2022-09-09T15:02:38;2.55;;;0.40;;
17384;SDS011;8810;48.680;8.894;2022-09-09T15:05:06;1.10;;;0.50;;
17384;SDS011;8810;48.680;8.894;2022-09-09T15:07:33;4.15;;;0.50;;
17384;SDS011;8810;48.680;8.894;2022-09-09T15:10:02;2.45;;;0.60;;
17384;SDS011;8810;48.680;8.894;2022-09-09T15:12:29;3.47;;;0.60;;
17384;SDS011;8810;48.680;8.894;2022-09-09T15:14:58;1.23;;;0.45;;
17384;SDS011;8810;48.680;8.894;2022-09-09T15:17:25;1.85;;;0.60;;
17384;SDS011;8810;48.680;8.894;2022-09-09T15:19:52;3.20;;;0.63;;
17384;SDS011;8810;48.680;8.894;2022-09-09T15:22:20;1.35;;;0.50;;
17384;SDS011;8810;48.680;8.894;2022-09-09T15:24:47;3.83;;;0.70;;
17384;SDS011;8810;48.680;8.894;2022-09-09T15:27:15;2.80;;;0.40;;
17384;SDS011;8810;48.680;8.894;2022-09-09T15:29:43;1.35;;;0.50;;
17384;SDS011;8810;48.680;8.894;2022-09-09T15:32:10;4.05;;;0.70;;
17384;SDS011;8810;48.680;8.894;2022-09-09T15:34:37;1.02;;;0.57;;